Fecha, hora, temperatura, viento dirección y velocidad, humedad y presión.

  • 16-07-2019 23:00:00 | 32.00°C | Nordeste |6.00 km/h | 23.00% | 943.80 hPa
  • 16-07-2019 22:00:00 | 32.10°C | Calma |0.00 km/h | 22.00% | 943.50 hPa
  • 16-07-2019 21:00:00 | 34.80°C | Este |8.00 km/h | 19.00% | 943.40 hPa
  • 16-07-2019 20:00:00 | 36.90°C | Sur |12.00 km/h | 17.00% | 943.60 hPa
  • 16-07-2019 19:00:00 | 35.90°C | Este |8.00 km/h | 17.00% | 943.90 hPa
  • 16-07-2019 18:00:00 | 37.50°C | Sudeste |17.00 km/h | 17.00% | 944.50 hPa
  • 16-07-2019 17:00:00 | 37.60°C | Sur |18.00 km/h | 16.00% | 945.20 hPa
  • 16-07-2019 16:00:00 | 36.00°C | Sur |13.00 km/h | 19.00% | 945.70 hPa
  • 16-07-2019 15:00:00 | 35.50°C | Sudeste |10.00 km/h | 21.00% | 946.20 hPa
  • 16-07-2019 14:00:00 | 33.50°C | Este |8.00 km/h | 25.00% | 946.90 hPa
  • 16-07-2019 13:00:00 | 32.00°C | Este |11.00 km/h | 28.00% | 947.50 hPa
  • 16-07-2019 12:00:00 | 30.00°C | Este |9.00 km/h | 32.00% | 948.10 hPa
  • 16-07-2019 11:00:00 | 27.80°C | Norte |6.00 km/h | 35.00% | 948.30 hPa
  • 16-07-2019 10:00:00 | 25.10°C | Nordeste |6.00 km/h | 34.00% | 948.70 hPa
  • 16-07-2019 09:00:00 | 23.30°C | Nordeste |4.00 km/h | 36.00% | 948.80 hPa
  • 16-07-2019 08:00:00 | 19.70°C | Norte |5.00 km/h | 46.00% | 948.50 hPa
  • 16-07-2019 07:00:00 | 19.80°C | Norte |6.00 km/h | 44.00% | 948.30 hPa
  • 16-07-2019 06:00:00 | 20.60°C | Norte |10.00 km/h | 42.00% | 948.00 hPa
  • 16-07-2019 05:00:00 | 21.70°C | Norte |9.00 km/h | 40.00% | 947.70 hPa
  • 16-07-2019 04:00:00 | 23.50°C | Noroeste |6.00 km/h | 36.00% | 947.60 hPa
  • 16-07-2019 02:00:00 | 25.40°C | Nordeste |9.00 km/h | 28.00% | 947.30 hPa
  • 16-07-2019 01:00:00 | 25.90°C | Nordeste |5.00 km/h | 27.00% | 947.20 hPa
  • 16-07-2019 00:00:00 | 27.60°C | Norte |13.00 km/h | 25.00% | 946.80 hPa
  • 15-07-2019 23:00:00 | 28.80°C | Norte |18.00 km/h | 26.00% | 946.30 hPa
    • diseño web asturias Información sobre el estado de las mareas, altura de la marejada, temperatura del agua y otros datos de Gijón en Asturias.

      Surf Gijón